sensor_id;sensor_type;location;lat;lon;timestamp;P1;durP1;ratioP1;P2;durP2;ratioP2
69083;SDS011;56185;48.526;9.044;2023-02-22T00:02:01;8.55;;;5.07;;
69083;SDS011;56185;48.526;9.044;2023-02-22T00:04:26;9.55;;;5.10;;
69083;SDS011;56185;48.526;9.044;2023-02-22T00:06:52;10.07;;;5.50;;
69083;SDS011;56185;48.526;9.044;2023-02-22T00:09:17;7.63;;;5.13;;
69083;SDS011;56185;48.526;9.044;2023-02-22T00:11:46;9.60;;;5.00;;
69083;SDS011;56185;48.526;9.044;2023-02-22T00:14:12;7.80;;;5.05;;
69083;SDS011;56185;48.526;9.044;2023-02-22T00:16:37;10.77;;;5.53;;
69083;SDS011;56185;48.526;9.044;2023-02-22T00:19:02;8.83;;;5.40;;
69083;SDS011;56185;48.526;9.044;2023-02-22T00:21:27;8.63;;;5.80;;
69083;SDS011;56185;48.526;9.044;2023-02-22T00:23:53;7.47;;;5.13;;
69083;SDS011;56185;48.526;9.044;2023-02-22T00:26:19;11.10;;;5.57;;
69083;SDS011;56185;48.526;9.044;2023-02-22T00:28:47;8.15;;;5.32;;
69083;SDS011;56185;48.526;9.044;2023-02-22T00:31:14;9.48;;;5.43;;
69083;SDS011;56185;48.526;9.044;2023-02-22T00:33:40;10.23;;;5.50;;
69083;SDS011;56185;48.526;9.044;2023-02-22T00:36:06;7.88;;;4.68;;
69083;SDS011;56185;48.526;9.044;2023-02-22T00:38:32;13.45;;;5.10;;
69083;SDS011;56185;48.526;9.044;2023-02-22T00:40:57;10.07;;;4.95;;
69083;SDS011;56185;48.526;9.044;2023-02-22T00:43:22;10.48;;;4.90;;
69083;SDS011;56185;48.526;9.044;2023-02-22T00:45:47;10.90;;;5.27;;
69083;SDS011;56185;48.526;9.044;2023-02-22T00:48:13;11.17;;;5.00;;
69083;SDS011;56185;48.526;9.044;2023-02-22T00:50:38;9.23;;;4.85;;
69083;SDS011;56185;48.526;9.044;2023-02-22T00:53:04;8.18;;;4.78;;
69083;SDS011;56185;48.526;9.044;2023-02-22T00:55:31;7.90;;;4.55;;
69083;SDS011;56185;48.526;9.044;2023-02-22T00:57:58;8.45;;;4.60;;
69083;SDS011;56185;48.526;9.044;2023-02-22T01:00:31;9.15;;;5.03;;
69083;SDS011;56185;48.526;9.044;2023-02-22T01:03:00;9.48;;;5.00;;
69083;SDS011;56185;48.526;9.044;2023-02-22T01:05:26;8.67;;;5.80;;
69083;SDS011;56185;48.526;9.044;2023-02-22T01:07:53;8.05;;;5.43;;
69083;SDS011;56185;48.526;9.044;2023-02-22T01:10:21;14.35;;;5.95;;
69083;SDS011;56185;48.526;9.044;2023-02-22T01:12:48;10.77;;;5.90;;
69083;SDS011;56185;48.526;9.044;2023-02-22T01:15:14;13.77;;;6.15;;
69083;SDS011;56185;48.526;9.044;2023-02-22T01:17:40;10.05;;;5.65;;
69083;SDS011;56185;48.526;9.044;2023-02-22T01:20:07;10.25;;;5.82;;
69083;SDS011;56185;48.526;9.044;2023-02-22T01:22:34;9.90;;;5.47;;
69083;SDS011;56185;48.526;9.044;2023-02-22T01:25:00;13.32;;;5.80;;
69083;SDS011;56185;48.526;9.044;2023-02-22T01:27:25;9.55;;;5.72;;
69083;SDS011;56185;48.526;9.044;2023-02-22T01:29:50;10.68;;;5.40;;
69083;SDS011;56185;48.526;9.044;2023-02-22T01:32:15;9.85;;;5.45;;
69083;SDS011;56185;48.526;9.044;2023-02-22T01:34:41;10.13;;;5.95;;
69083;SDS011;56185;48.526;9.044;2023-02-22T01:37:06;9.50;;;5.72;;
69083;SDS011;56185;48.526;9.044;2023-02-22T01:39:32;10.60;;;5.88;;
69083;SDS011;56185;48.526;9.044;2023-02-22T01:41:57;12.35;;;5.82;;
69083;SDS011;56185;48.526;9.044;2023-02-22T01:44:30;10.02;;;5.25;;
69083;SDS011;56185;48.526;9.044;2023-02-22T01:47:02;10.10;;;6.00;;
69083;SDS011;56185;48.526;9.044;2023-02-22T01:49:30;9.45;;;5.90;;
69083;SDS011;56185;48.526;9.044;2023-02-22T01:52:08;10.85;;;6.00;;
69083;SDS011;56185;48.526;9.044;2023-02-22T01:54:44;15.63;;;6.70;;
69083;SDS011;56185;48.526;9.044;2023-02-22T01:59:50;11.85;;;6.30;;
69083;SDS011;56185;48.526;9.044;2023-02-22T02:02:18;13.50;;;6.43;;
69083;SDS011;56185;48.526;9.044;2023-02-22T02:04:44;9.98;;;6.22;;
69083;SDS011;56185;48.526;9.044;2023-02-22T02:07:11;12.95;;;7.03;;
69083;SDS011;56185;48.526;9.044;2023-02-22T02:09:46;10.45;;;5.65;;
69083;SDS011;56185;48.526;9.044;2023-02-22T02:12:18;11.23;;;6.07;;
69083;SDS011;56185;48.526;9.044;2023-02-22T02:14:45;11.38;;;6.50;;
69083;SDS011;56185;48.526;9.044;2023-02-22T02:17:12;11.85;;;5.90;;
69083;SDS011;56185;48.526;9.044;2023-02-22T02:28:26;10.52;;;5.90;;
69083;SDS011;56185;48.526;9.044;2023-02-22T02:36:33;12.45;;;6.55;;
69083;SDS011;56185;48.526;9.044;2023-02-22T02:39:14;11.07;;;6.25;;
69083;SDS011;56185;48.526;9.044;2023-02-22T02:41:50;10.95;;;6.47;;
69083;SDS011;56185;48.526;9.044;2023-02-22T02:44:18;11.10;;;6.50;;
69083;SDS011;56185;48.526;9.044;2023-02-22T02:49:23;12.88;;;6.40;;
69083;SDS011;56185;48.526;9.044;2023-02-22T02:51:53;10.63;;;5.78;;
69083;SDS011;56185;48.526;9.044;2023-02-22T02:54:22;12.05;;;6.45;;
69083;SDS011;56185;48.526;9.044;2023-02-22T02:56:49;10.60;;;6.00;;
69083;SDS011;56185;48.526;9.044;2023-02-22T03:08:09;12.07;;;6.20;;
69083;SDS011;56185;48.526;9.044;2023-02-22T03:10:40;9.95;;;6.07;;
69083;SDS011;56185;48.526;9.044;2023-02-22T03:16:11;8.73;;;6.15;;
69083;SDS011;56185;48.526;9.044;2023-02-22T03:18:58;11.18;;;6.75;;
69083;SDS011;56185;48.526;9.044;2023-02-22T03:26:34;15.40;;;6.75;;
69083;SDS011;56185;48.526;9.044;2023-02-22T03:29:03;13.38;;;6.20;;
69083;SDS011;56185;48.526;9.044;2023-02-22T03:31:32;11.18;;;6.45;;
69083;SDS011;56185;48.526;9.044;2023-02-22T03:34:04;11.15;;;6.25;;
69083;SDS011;56185;48.526;9.044;2023-02-22T03:36:35;12.55;;;6.43;;
69083;SDS011;56185;48.526;9.044;2023-02-22T03:39:06;11.80;;;6.65;;
69083;SDS011;56185;48.526;9.044;2023-02-22T03:41:35;15.05;;;6.70;;
69083;SDS011;56185;48.526;9.044;2023-02-22T03:44:05;11.35;;;6.55;;
69083;SDS011;56185;48.526;9.044;2023-02-22T03:46:35;12.02;;;6.30;;
69083;SDS011;56185;48.526;9.044;2023-02-22T03:49:11;15.27;;;6.80;;
69083;SDS011;56185;48.526;9.044;2023-02-22T03:51:41;13.73;;;6.88;;
69083;SDS011;56185;48.526;9.044;2023-02-22T03:54:08;11.18;;;6.45;;
69083;SDS011;56185;48.526;9.044;2023-02-22T03:56:38;12.30;;;6.40;;
69083;SDS011;56185;48.526;9.044;2023-02-22T03:59:09;11.63;;;6.50;;
69083;SDS011;56185;48.526;9.044;2023-02-22T04:01:35;11.32;;;6.45;;
69083;SDS011;56185;48.526;9.044;2023-02-22T04:04:00;12.35;;;6.65;;
69083;SDS011;56185;48.526;9.044;2023-02-22T04:06:26;10.32;;;6.03;;
69083;SDS011;56185;48.526;9.044;2023-02-22T04:08:52;12.88;;;6.65;;
69083;SDS011;56185;48.526;9.044;2023-02-22T04:11:18;10.70;;;7.10;;
69083;SDS011;56185;48.526;9.044;2023-02-22T04:13:44;10.65;;;6.35;;
69083;SDS011;56185;48.526;9.044;2023-02-22T04:16:09;10.73;;;6.72;;
69083;SDS011;56185;48.526;9.044;2023-02-22T04:18:34;14.05;;;6.32;;
69083;SDS011;56185;48.526;9.044;2023-02-22T04:21:00;17.00;;;6.90;;
69083;SDS011;56185;48.526;9.044;2023-02-22T04:23:25;13.27;;;6.30;;
69083;SDS011;56185;48.526;9.044;2023-02-22T04:25:50;13.10;;;6.93;;
69083;SDS011;56185;48.526;9.044;2023-02-22T04:28:15;11.98;;;6.53;;
69083;SDS011;56185;48.526;9.044;2023-02-22T04:30:41;11.20;;;6.90;;
69083;SDS011;56185;48.526;9.044;2023-02-22T04:33:06;11.82;;;6.10;;
69083;SDS011;56185;48.526;9.044;2023-02-22T04:35:31;11.32;;;6.65;;
69083;SDS011;56185;48.526;9.044;2023-02-22T04:37:57;14.13;;;7.10;;
69083;SDS011;56185;48.526;9.044;2023-02-22T04:40:22;11.63;;;6.00;;
69083;SDS011;56185;48.526;9.044;2023-02-22T04:42:47;10.00;;;6.55;;
69083;SDS011;56185;48.526;9.044;2023-02-22T04:45:13;11.50;;;6.20;;
69083;SDS011;56185;48.526;9.044;2023-02-22T04:47:38;10.30;;;6.50;;
69083;SDS011;56185;48.526;9.044;2023-02-22T04:50:04;12.95;;;6.03;;
69083;SDS011;56185;48.526;9.044;2023-02-22T04:52:30;11.68;;;6.55;;
69083;SDS011;56185;48.526;9.044;2023-02-22T04:54:56;10.98;;;6.57;;
69083;SDS011;56185;48.526;9.044;2023-02-22T04:57:21;10.63;;;6.53;;
69083;SDS011;56185;48.526;9.044;2023-02-22T04:59:47;12.77;;;6.38;;
69083;SDS011;56185;48.526;9.044;2023-02-22T05:02:12;13.05;;;6.40;;
69083;SDS011;56185;48.526;9.044;2023-02-22T05:04:37;11.90;;;6.80;;
69083;SDS011;56185;48.526;9.044;2023-02-22T05:07:03;14.65;;;6.90;;
69083;SDS011;56185;48.526;9.044;2023-02-22T05:09:28;11.60;;;6.40;;
69083;SDS011;56185;48.526;9.044;2023-02-22T05:11:53;10.10;;;6.00;;
69083;SDS011;56185;48.526;9.044;2023-02-22T05:14:19;12.07;;;6.40;;
69083;SDS011;56185;48.526;9.044;2023-02-22T05:16:44;9.43;;;6.32;;
69083;SDS011;56185;48.526;9.044;2023-02-22T05:19:09;11.13;;;6.13;;
69083;SDS011;56185;48.526;9.044;2023-02-22T05:21:34;10.25;;;6.45;;
69083;SDS011;56185;48.526;9.044;2023-02-22T05:24:00;12.93;;;6.47;;
69083;SDS011;56185;48.526;9.044;2023-02-22T05:26:25;12.93;;;6.25;;
69083;SDS011;56185;48.526;9.044;2023-02-22T05:28:51;12.57;;;6.03;;
69083;SDS011;56185;48.526;9.044;2023-02-22T05:31:16;8.98;;;5.82;;
69083;SDS011;56185;48.526;9.044;2023-02-22T05:33:41;10.75;;;6.30;;
69083;SDS011;56185;48.526;9.044;2023-02-22T05:36:07;9.95;;;5.90;;
69083;SDS011;56185;48.526;9.044;2023-02-22T05:38:33;10.50;;;6.38;;
69083;SDS011;56185;48.526;9.044;2023-02-22T05:40:58;13.82;;;6.32;;
69083;SDS011;56185;48.526;9.044;2023-02-22T05:43:23;9.90;;;5.85;;
69083;SDS011;56185;48.526;9.044;2023-02-22T05:45:49;10.75;;;5.78;;
69083;SDS011;56185;48.526;9.044;2023-02-22T05:48:14;9.70;;;5.80;;
69083;SDS011;56185;48.526;9.044;2023-02-22T05:50:39;7.88;;;5.65;;
69083;SDS011;56185;48.526;9.044;2023-02-22T05:53:05;9.80;;;5.63;;
69083;SDS011;56185;48.526;9.044;2023-02-22T05:55:30;8.60;;;6.20;;
69083;SDS011;56185;48.526;9.044;2023-02-22T05:57:55;9.10;;;6.50;;
69083;SDS011;56185;48.526;9.044;2023-02-22T06:00:28;9.18;;;6.00;;
69083;SDS011;56185;48.526;9.044;2023-02-22T06:02:58;10.00;;;6.20;;
69083;SDS011;56185;48.526;9.044;2023-02-22T06:05:30;13.27;;;6.20;;
69083;SDS011;56185;48.526;9.044;2023-02-22T06:07:56;9.32;;;6.28;;
69083;SDS011;56185;48.526;9.044;2023-02-22T06:10:23;9.98;;;6.28;;
69083;SDS011;56185;48.526;9.044;2023-02-22T06:12:49;9.05;;;5.78;;
69083;SDS011;56185;48.526;9.044;2023-02-22T06:15:15;15.07;;;5.93;;
69083;SDS011;56185;48.526;9.044;2023-02-22T06:17:41;9.65;;;5.95;;
69083;SDS011;56185;48.526;9.044;2023-02-22T06:20:10;11.60;;;6.55;;
69083;SDS011;56185;48.526;9.044;2023-02-22T06:22:37;8.95;;;5.95;;
69083;SDS011;56185;48.526;9.044;2023-02-22T06:25:02;8.70;;;5.80;;
69083;SDS011;56185;48.526;9.044;2023-02-22T06:27:32;11.10;;;6.05;;
69083;SDS011;56185;48.526;9.044;2023-02-22T06:29:58;8.55;;;5.97;;
69083;SDS011;56185;48.526;9.044;2023-02-22T06:32:23;10.07;;;5.78;;
69083;SDS011;56185;48.526;9.044;2023-02-22T06:34:49;9.77;;;5.50;;
69083;SDS011;56185;48.526;9.044;2023-02-22T06:37:14;12.75;;;6.55;;
69083;SDS011;56185;48.526;9.044;2023-02-22T06:39:39;11.57;;;6.30;;
69083;SDS011;56185;48.526;9.044;2023-02-22T06:42:04;9.25;;;6.10;;
69083;SDS011;56185;48.526;9.044;2023-02-22T06:44:30;12.15;;;6.55;;
69083;SDS011;56185;48.526;9.044;2023-02-22T06:46:55;15.60;;;6.25;;
69083;SDS011;56185;48.526;9.044;2023-02-22T06:49:20;10.80;;;6.63;;
69083;SDS011;56185;48.526;9.044;2023-02-22T06:51:46;9.98;;;5.80;;
69083;SDS011;56185;48.526;9.044;2023-02-22T06:54:11;10.32;;;6.32;;
69083;SDS011;56185;48.526;9.044;2023-02-22T06:56:37;11.02;;;6.13;;
69083;SDS011;56185;48.526;9.044;2023-02-22T06:59:02;13.23;;;6.65;;
69083;SDS011;56185;48.526;9.044;2023-02-22T07:01:27;11.68;;;5.78;;
69083;SDS011;56185;48.526;9.044;2023-02-22T07:03:53;13.48;;;6.03;;
69083;SDS011;56185;48.526;9.044;2023-02-22T07:06:18;11.27;;;6.60;;
69083;SDS011;56185;48.526;9.044;2023-02-22T07:08:43;8.23;;;5.57;;
69083;SDS011;56185;48.526;9.044;2023-02-22T07:11:11;9.65;;;6.00;;
69083;SDS011;56185;48.526;9.044;2023-02-22T07:13:36;11.30;;;6.07;;
69083;SDS011;56185;48.526;9.044;2023-02-22T07:16:01;9.03;;;5.53;;
69083;SDS011;56185;48.526;9.044;2023-02-22T07:18:27;12.25;;;6.35;;
69083;SDS011;56185;48.526;9.044;2023-02-22T07:20:52;12.63;;;6.47;;
69083;SDS011;56185;48.526;9.044;2023-02-22T07:23:17;7.97;;;5.53;;
69083;SDS011;56185;48.526;9.044;2023-02-22T07:25:43;10.70;;;6.17;;
69083;SDS011;56185;48.526;9.044;2023-02-22T07:28:08;12.85;;;6.18;;
69083;SDS011;56185;48.526;9.044;2023-02-22T07:30:34;9.55;;;6.13;;
69083;SDS011;56185;48.526;9.044;2023-02-22T07:33:00;10.43;;;6.28;;
69083;SDS011;56185;48.526;9.044;2023-02-22T07:35:28;9.73;;;6.45;;
69083;SDS011;56185;48.526;9.044;2023-02-22T07:37:55;11.05;;;6.47;;
69083;SDS011;56185;48.526;9.044;2023-02-22T07:40:20;10.05;;;6.40;;
69083;SDS011;56185;48.526;9.044;2023-02-22T07:42:50;11.50;;;6.07;;
69083;SDS011;56185;48.526;9.044;2023-02-22T07:45:16;9.40;;;6.03;;
69083;SDS011;56185;48.526;9.044;2023-02-22T07:47:42;11.50;;;6.47;;
69083;SDS011;56185;48.526;9.044;2023-02-22T07:50:09;9.15;;;6.30;;
69083;SDS011;56185;48.526;9.044;2023-02-22T07:52:36;11.15;;;6.20;;
69083;SDS011;56185;48.526;9.044;2023-02-22T07:55:15;22.40;;;7.65;;
69083;SDS011;56185;48.526;9.044;2023-02-22T07:58:21;10.60;;;6.55;;
69083;SDS011;56185;48.526;9.044;2023-02-22T08:00:57;12.48;;;6.40;;
69083;SDS011;56185;48.526;9.044;2023-02-22T08:03:32;11.27;;;7.20;;
69083;SDS011;56185;48.526;9.044;2023-02-22T08:06:25;12.02;;;6.75;;
69083;SDS011;56185;48.526;9.044;2023-02-22T08:09:09;12.50;;;6.50;;
69083;SDS011;56185;48.526;9.044;2023-02-22T08:11:34;12.00;;;7.10;;
69083;SDS011;56185;48.526;9.044;2023-02-22T08:14:00;10.53;;;6.90;;
69083;SDS011;56185;48.526;9.044;2023-02-22T08:16:25;9.83;;;6.00;;
69083;SDS011;56185;48.526;9.044;2023-02-22T08:18:50;13.65;;;6.47;;
69083;SDS011;56185;48.526;9.044;2023-02-22T08:21:15;10.93;;;6.40;;
69083;SDS011;56185;48.526;9.044;2023-02-22T08:23:41;11.05;;;6.68;;
69083;SDS011;56185;48.526;9.044;2023-02-22T08:26:07;11.43;;;6.97;;
69083;SDS011;56185;48.526;9.044;2023-02-22T08:28:34;12.73;;;6.57;;
69083;SDS011;56185;48.526;9.044;2023-02-22T08:30:59;19.27;;;7.15;;
69083;SDS011;56185;48.526;9.044;2023-02-22T08:33:25;13.57;;;7.20;;
69083;SDS011;56185;48.526;9.044;2023-02-22T08:35:50;11.77;;;6.85;;
69083;SDS011;56185;48.526;9.044;2023-02-22T08:38:17;11.93;;;7.00;;
69083;SDS011;56185;48.526;9.044;2023-02-22T08:40:46;12.27;;;6.80;;
69083;SDS011;56185;48.526;9.044;2023-02-22T08:43:13;10.43;;;6.22;;
69083;SDS011;56185;48.526;9.044;2023-02-22T08:45:39;9.98;;;5.88;;
69083;SDS011;56185;48.526;9.044;2023-02-22T08:48:05;11.18;;;6.18;;
69083;SDS011;56185;48.526;9.044;2023-02-22T08:50:31;11.65;;;6.70;;
69083;SDS011;56185;48.526;9.044;2023-02-22T08:52:58;11.10;;;6.00;;
69083;SDS011;56185;48.526;9.044;2023-02-22T08:55:24;10.70;;;5.85;;
69083;SDS011;56185;48.526;9.044;2023-02-22T08:57:51;12.00;;;6.25;;
69083;SDS011;56185;48.526;9.044;2023-02-22T09:00:17;8.63;;;5.65;;
69083;SDS011;56185;48.526;9.044;2023-02-22T09:02:43;10.38;;;6.57;;
69083;SDS011;56185;48.526;9.044;2023-02-22T09:05:08;12.32;;;5.78;;
69083;SDS011;56185;48.526;9.044;2023-02-22T09:07:34;7.85;;;5.40;;
69083;SDS011;56185;48.526;9.044;2023-02-22T09:10:00;11.63;;;5.95;;
69083;SDS011;56185;48.526;9.044;2023-02-22T09:12:25;8.70;;;5.40;;
69083;SDS011;56185;48.526;9.044;2023-02-22T09:14:50;10.63;;;5.93;;
69083;SDS011;56185;48.526;9.044;2023-02-22T09:17:15;12.77;;;5.78;;
69083;SDS011;56185;48.526;9.044;2023-02-22T09:19:41;10.88;;;6.00;;
69083;SDS011;56185;48.526;9.044;2023-02-22T09:22:06;9.80;;;6.20;;
69083;SDS011;56185;48.526;9.044;2023-02-22T09:24:31;11.02;;;5.65;;
69083;SDS011;56185;48.526;9.044;2023-02-22T09:26:56;9.15;;;5.60;;
69083;SDS011;56185;48.526;9.044;2023-02-22T09:29:22;9.55;;;6.07;;
69083;SDS011;56185;48.526;9.044;2023-02-22T09:31:50;12.13;;;5.60;;
69083;SDS011;56185;48.526;9.044;2023-02-22T09:34:17;11.13;;;6.00;;
69083;SDS011;56185;48.526;9.044;2023-02-22T09:36:44;11.68;;;5.82;;
69083;SDS011;56185;48.526;9.044;2023-02-22T09:39:11;11.10;;;6.32;;
69083;SDS011;56185;48.526;9.044;2023-02-22T09:42:25;11.95;;;6.32;;
69083;SDS011;56185;48.526;9.044;2023-02-22T09:44:51;8.65;;;5.85;;
69083;SDS011;56185;48.526;9.044;2023-02-22T09:47:25;10.13;;;5.80;;
69083;SDS011;56185;48.526;9.044;2023-02-22T09:50:10;10.10;;;6.50;;
69083;SDS011;56185;48.526;9.044;2023-02-22T09:52:39;9.45;;;5.97;;
69083;SDS011;56185;48.526;9.044;2023-02-22T09:55:18;11.10;;;6.18;;
69083;SDS011;56185;48.526;9.044;2023-02-22T09:57:50;9.63;;;5.60;;
69083;SDS011;56185;48.526;9.044;2023-02-22T10:00:18;10.70;;;5.60;;
69083;SDS011;56185;48.526;9.044;2023-02-22T10:05:33;8.77;;;5.88;;
69083;SDS011;56185;48.526;9.044;2023-02-22T10:08:01;9.35;;;6.35;;
69083;SDS011;56185;48.526;9.044;2023-02-22T10:10:30;9.73;;;5.80;;
69083;SDS011;56185;48.526;9.044;2023-02-22T10:15:45;10.27;;;6.40;;
69083;SDS011;56185;48.526;9.044;2023-02-22T10:26:36;11.70;;;5.97;;
69083;SDS011;56185;48.526;9.044;2023-02-22T10:29:26;9.63;;;5.38;;
69083;SDS011;56185;48.526;9.044;2023-02-22T10:32:09;8.98;;;6.03;;
69083;SDS011;56185;48.526;9.044;2023-02-22T10:34:47;9.38;;;5.38;;
69083;SDS011;56185;48.526;9.044;2023-02-22T10:40:16;10.18;;;5.80;;
69083;SDS011;56185;48.526;9.044;2023-02-22T10:42:46;13.50;;;6.28;;
69083;SDS011;56185;48.526;9.044;2023-02-22T10:47:49;8.57;;;5.70;;
69083;SDS011;56185;48.526;9.044;2023-02-22T10:50:18;9.98;;;5.38;;
69083;SDS011;56185;48.526;9.044;2023-02-22T10:52:44;12.02;;;5.25;;
69083;SDS011;56185;48.526;9.044;2023-02-22T10:55:11;10.07;;;6.00;;
69083;SDS011;56185;48.526;9.044;2023-02-22T10:57:38;8.25;;;5.20;;
69083;SDS011;56185;48.526;9.044;2023-02-22T11:00:15;8.52;;;5.88;;
69083;SDS011;56185;48.526;9.044;2023-02-22T11:02:53;15.38;;;5.65;;
69083;SDS011;56185;48.526;9.044;2023-02-22T11:05:29;16.88;;;6.07;;
69083;SDS011;56185;48.526;9.044;2023-02-22T11:10:51;8.90;;;5.13;;
69083;SDS011;56185;48.526;9.044;2023-02-22T11:13:27;8.18;;;5.20;;
69083;SDS011;56185;48.526;9.044;2023-02-22T11:15:54;11.85;;;5.35;;
69083;SDS011;56185;48.526;9.044;2023-02-22T11:18:24;9.30;;;5.55;;
69083;SDS011;56185;48.526;9.044;2023-02-22T11:21:03;8.52;;;5.30;;
69083;SDS011;56185;48.526;9.044;2023-02-22T11:23:31;13.48;;;5.72;;
69083;SDS011;56185;48.526;9.044;2023-02-22T11:26:04;11.57;;;5.60;;
69083;SDS011;56185;48.526;9.044;2023-02-22T11:28:31;11.85;;;5.57;;
69083;SDS011;56185;48.526;9.044;2023-02-22T11:31:10;10.50;;;5.45;;
69083;SDS011;56185;48.526;9.044;2023-02-22T11:33:39;10.55;;;5.70;;
69083;SDS011;56185;48.526;9.044;2023-02-22T11:36:13;10.63;;;5.68;;
69083;SDS011;56185;48.526;9.044;2023-02-22T11:38:54;9.40;;;5.50;;
69083;SDS011;56185;48.526;9.044;2023-02-22T11:41:25;9.30;;;5.40;;
69083;SDS011;56185;48.526;9.044;2023-02-22T11:43:52;13.85;;;5.90;;
69083;SDS011;56185;48.526;9.044;2023-02-22T11:48:55;8.65;;;5.28;;
69083;SDS011;56185;48.526;9.044;2023-02-22T11:56:47;11.15;;;5.32;;
69083;SDS011;56185;48.526;9.044;2023-02-22T11:59:22;8.95;;;4.55;;
69083;SDS011;56185;48.526;9.044;2023-02-22T12:21:11;12.48;;;5.72;;
69083;SDS011;56185;48.526;9.044;2023-02-22T12:23:44;13.85;;;6.10;;
69083;SDS011;56185;48.526;9.044;2023-02-22T12:28:56;9.10;;;5.90;;
69083;SDS011;56185;48.526;9.044;2023-02-22T12:31:29;9.63;;;6.13;;
69083;SDS011;56185;48.526;9.044;2023-02-22T12:36:24;10.40;;;5.22;;
69083;SDS011;56185;48.526;9.044;2023-02-22T12:39:02;7.80;;;4.80;;
69083;SDS011;56185;48.526;9.044;2023-02-22T12:41:37;11.45;;;5.25;;
69083;SDS011;56185;48.526;9.044;2023-02-22T12:44:09;9.68;;;5.10;;
69083;SDS011;56185;48.526;9.044;2023-02-22T12:46:48;10.45;;;5.50;;
69083;SDS011;56185;48.526;9.044;2023-02-22T12:49:27;10.90;;;5.23;;
69083;SDS011;56185;48.526;9.044;2023-02-22T12:52:00;8.45;;;5.20;;
69083;SDS011;56185;48.526;9.044;2023-02-22T12:54:51;9.10;;;5.40;;
69083;SDS011;56185;48.526;9.044;2023-02-22T12:57:24;15.20;;;5.57;;
69083;SDS011;56185;48.526;9.044;2023-02-22T13:00:00;8.73;;;4.90;;
69083;SDS011;56185;48.526;9.044;2023-02-22T13:02:37;9.65;;;5.20;;
69083;SDS011;56185;48.526;9.044;2023-02-22T13:05:15;9.15;;;5.18;;
69083;SDS011;56185;48.526;9.044;2023-02-22T13:07:46;9.82;;;5.03;;
69083;SDS011;56185;48.526;9.044;2023-02-22T13:16:30;8.82;;;4.82;;
69083;SDS011;56185;48.526;9.044;2023-02-22T13:21:46;9.10;;;4.68;;
69083;SDS011;56185;48.526;9.044;2023-02-22T13:24:21;10.38;;;4.38;;
69083;SDS011;56185;48.526;9.044;2023-02-22T13:26:53;9.07;;;5.15;;
69083;SDS011;56185;48.526;9.044;2023-02-22T13:29:23;8.80;;;5.10;;
69083;SDS011;56185;48.526;9.044;2023-02-22T13:34:29;11.25;;;5.25;;
69083;SDS011;56185;48.526;9.044;2023-02-22T13:39:59;8.75;;;4.30;;
69083;SDS011;56185;48.526;9.044;2023-02-22T13:48:50;12.25;;;4.78;;
69083;SDS011;56185;48.526;9.044;2023-02-22T13:53:57;9.07;;;4.30;;
69083;SDS011;56185;48.526;9.044;2023-02-22T13:56:29;7.45;;;4.22;;
69083;SDS011;56185;48.526;9.044;2023-02-22T13:58:56;7.10;;;4.13;;
69083;SDS011;56185;48.526;9.044;2023-02-22T14:04:42;11.20;;;4.30;;
69083;SDS011;56185;48.526;9.044;2023-02-22T14:06:52;10.70;;;5.18;;
69083;SDS011;56185;48.526;9.044;2023-02-22T14:12:06;7.57;;;4.28;;
69083;SDS011;56185;48.526;9.044;2023-02-22T14:14:31;6.95;;;4.28;;
69083;SDS011;56185;48.526;9.044;2023-02-22T14:17:16;6.40;;;4.03;;
69083;SDS011;56185;48.526;9.044;2023-02-22T14:19:59;7.75;;;4.30;;
69083;SDS011;56185;48.526;9.044;2023-02-22T14:22:26;8.43;;;4.28;;
69083;SDS011;56185;48.526;9.044;2023-02-22T14:24:52;9.55;;;4.22;;
69083;SDS011;56185;48.526;9.044;2023-02-22T14:27:18;9.90;;;4.60;;
69083;SDS011;56185;48.526;9.044;2023-02-22T14:29:50;13.70;;;4.63;;
69083;SDS011;56185;48.526;9.044;2023-02-22T14:32:17;9.50;;;4.70;;
69083;SDS011;56185;48.526;9.044;2023-02-22T14:34:47;7.50;;;4.45;;
69083;SDS011;56185;48.526;9.044;2023-02-22T14:39:55;9.90;;;4.68;;
69083;SDS011;56185;48.526;9.044;2023-02-22T14:42:44;9.95;;;5.22;;
69083;SDS011;56185;48.526;9.044;2023-02-22T14:45:23;11.10;;;4.53;;
69083;SDS011;56185;48.526;9.044;2023-02-22T14:48:03;8.13;;;4.65;;
69083;SDS011;56185;48.526;9.044;2023-02-22T14:55:46;7.85;;;4.80;;
69083;SDS011;56185;48.526;9.044;2023-02-22T15:00:48;10.90;;;4.95;;
69083;SDS011;56185;48.526;9.044;2023-02-22T15:03:24;10.63;;;5.30;;
69083;SDS011;56185;48.526;9.044;2023-02-22T15:05:52;10.27;;;4.82;;
69083;SDS011;56185;48.526;9.044;2023-02-22T15:08:17;10.52;;;5.32;;
69083;SDS011;56185;48.526;9.044;2023-02-22T15:10:44;9.75;;;4.72;;
69083;SDS011;56185;48.526;9.044;2023-02-22T15:13:18;8.93;;;5.20;;
69083;SDS011;56185;48.526;9.044;2023-02-22T15:15:46;10.25;;;5.07;;
69083;SDS011;56185;48.526;9.044;2023-02-22T15:18:17;8.00;;;4.75;;
69083;SDS011;56185;48.526;9.044;2023-02-22T15:21:08;11.43;;;5.47;;
69083;SDS011;56185;48.526;9.044;2023-02-22T15:23:54;8.75;;;5.28;;
69083;SDS011;56185;48.526;9.044;2023-02-22T15:26:30;7.85;;;5.15;;
69083;SDS011;56185;48.526;9.044;2023-02-22T15:28:58;10.95;;;5.65;;
69083;SDS011;56185;48.526;9.044;2023-02-22T15:31:34;9.23;;;5.95;;
69083;SDS011;56185;48.526;9.044;2023-02-22T15:36:38;9.10;;;6.00;;
69083;SDS011;56185;48.526;9.044;2023-02-22T15:39:04;10.77;;;5.85;;
69083;SDS011;56185;48.526;9.044;2023-02-22T15:41:30;10.60;;;6.10;;
69083;SDS011;56185;48.526;9.044;2023-02-22T15:44:01;10.77;;;6.13;;
69083;SDS011;56185;48.526;9.044;2023-02-22T15:46:31;12.77;;;6.43;;
69083;SDS011;56185;48.526;9.044;2023-02-22T15:51:34;10.98;;;6.03;;
69083;SDS011;56185;48.526;9.044;2023-02-22T15:54:02;10.30;;;6.05;;
69083;SDS011;56185;48.526;9.044;2023-02-22T15:56:29;11.20;;;7.15;;
69083;SDS011;56185;48.526;9.044;2023-02-22T15:59:01;10.30;;;6.43;;
69083;SDS011;56185;48.526;9.044;2023-02-22T16:01:42;15.57;;;7.18;;
69083;SDS011;56185;48.526;9.044;2023-02-22T16:04:23;12.25;;;6.97;;
69083;SDS011;56185;48.526;9.044;2023-02-22T16:06:51;12.52;;;7.15;;
69083;SDS011;56185;48.526;9.044;2023-02-22T16:09:26;14.57;;;7.05;;
69083;SDS011;56185;48.526;9.044;2023-02-22T16:12:21;11.25;;;7.13;;
69083;SDS011;56185;48.526;9.044;2023-02-22T16:14:49;12.68;;;6.90;;
69083;SDS011;56185;48.526;9.044;2023-02-22T16:17:37;11.98;;;7.65;;
69083;SDS011;56185;48.526;9.044;2023-02-22T16:22:38;11.27;;;7.03;;
69083;SDS011;56185;48.526;9.044;2023-02-22T16:27:43;11.57;;;6.65;;
69083;SDS011;56185;48.526;9.044;2023-02-22T16:32:46;12.40;;;6.55;;
69083;SDS011;56185;48.526;9.044;2023-02-22T16:35:13;14.15;;;6.75;;
69083;SDS011;56185;48.526;9.044;2023-02-22T16:37:38;11.15;;;6.90;;
69083;SDS011;56185;48.526;9.044;2023-02-22T16:40:04;10.60;;;7.13;;
69083;SDS011;56185;48.526;9.044;2023-02-22T16:42:29;12.18;;;6.75;;
69083;SDS011;56185;48.526;9.044;2023-02-22T16:44:54;11.17;;;7.27;;
69083;SDS011;56185;48.526;9.044;2023-02-22T16:47:20;10.88;;;7.05;;
69083;SDS011;56185;48.526;9.044;2023-02-22T16:49:48;11.75;;;7.05;;
69083;SDS011;56185;48.526;9.044;2023-02-22T16:52:15;12.23;;;8.18;;
69083;SDS011;56185;48.526;9.044;2023-02-22T16:54:41;15.33;;;7.63;;
69083;SDS011;56185;48.526;9.044;2023-02-22T16:57:09;13.52;;;7.60;;
69083;SDS011;56185;48.526;9.044;2023-02-22T16:59:41;12.38;;;7.43;;
69083;SDS011;56185;48.526;9.044;2023-02-22T17:02:09;14.65;;;8.02;;
69083;SDS011;56185;48.526;9.044;2023-02-22T17:04:37;11.95;;;7.20;;
69083;SDS011;56185;48.526;9.044;2023-02-22T17:07:03;11.80;;;7.15;;
69083;SDS011;56185;48.526;9.044;2023-02-22T17:09:29;11.40;;;7.40;;
69083;SDS011;56185;48.526;9.044;2023-02-22T17:11:54;15.77;;;7.93;;
69083;SDS011;56185;48.526;9.044;2023-02-22T17:14:20;13.00;;;7.20;;